sensor_id;sensor_type;location;lat;lon;timestamp;pressure;altitude;pressure_sealevel;temperature;humidity
73016;BME280;61893;50.074;14.440;2022-07-23T00:01:51;98507.34;;;22.90;50.71
73016;BME280;61893;50.074;14.440;2022-07-23T00:04:18;98510.50;;;22.87;50.55
73016;BME280;61893;50.074;14.440;2022-07-23T00:06:48;98499.75;;;22.80;50.69
73016;BME280;61893;50.074;14.440;2022-07-23T00:09:20;98501.97;;;22.71;51.03
73016;BME280;61893;50.074;14.440;2022-07-23T00:11:47;98507.03;;;22.68;51.23
73016;BME280;61893;50.074;14.440;2022-07-23T00:14:13;98511.50;;;22.62;51.42
73016;BME280;61893;50.074;14.440;2022-07-23T00:16:40;98514.81;;;22.64;51.43
73016;BME280;61893;50.074;14.440;2022-07-23T00:19:09;98511.63;;;22.67;51.25
73016;BME280;61893;50.074;14.440;2022-07-23T00:21:35;98502.75;;;22.60;51.68
73016;BME280;61893;50.074;14.440;2022-07-23T00:24:08;98499.94;;;22.55;52.13
73016;BME280;61893;50.074;14.440;2022-07-23T00:26:53;98498.50;;;22.53;51.68
73016;BME280;61893;50.074;14.440;2022-07-23T00:29:24;98509.34;;;22.53;52.02
73016;BME280;61893;50.074;14.440;2022-07-23T00:31:52;98510.72;;;22.43;52.16
73016;BME280;61893;50.074;14.440;2022-07-23T00:34:23;98508.38;;;22.47;52.20
73016;BME280;61893;50.074;14.440;2022-07-23T00:36:52;98501.28;;;22.46;52.30
73016;BME280;61893;50.074;14.440;2022-07-23T00:39:20;98501.53;;;22.44;52.43
73016;BME280;61893;50.074;14.440;2022-07-23T00:41:50;98488.66;;;22.40;52.22
73016;BME280;61893;50.074;14.440;2022-07-23T00:44:21;98495.97;;;22.39;52.67
73016;BME280;61893;50.074;14.440;2022-07-23T00:46:50;98489.22;;;22.30;52.50
73016;BME280;61893;50.074;14.440;2022-07-23T00:49:23;98488.00;;;22.26;53.07
73016;BME280;61893;50.074;14.440;2022-07-23T00:51:51;98479.47;;;22.41;52.63
73016;BME280;61893;50.074;14.440;2022-07-23T00:54:26;98477.78;;;22.28;52.77
73016;BME280;61893;50.074;14.440;2022-07-23T00:56:57;98475.88;;;22.29;53.08
73016;BME280;61893;50.074;14.440;2022-07-23T00:59:23;98475.38;;;22.20;53.36
73016;BME280;61893;50.074;14.440;2022-07-23T01:01:52;98469.19;;;22.13;53.35
73016;BME280;61893;50.074;14.440;2022-07-23T01:04:20;98474.63;;;22.13;53.60
73016;BME280;61893;50.074;14.440;2022-07-23T01:06:47;98475.19;;;22.15;53.50
73016;BME280;61893;50.074;14.440;2022-07-23T01:09:17;98481.41;;;22.22;53.43
73016;BME280;61893;50.074;14.440;2022-07-23T01:11:48;98475.16;;;22.21;53.27
73016;BME280;61893;50.074;14.440;2022-07-23T01:14:18;98476.13;;;22.27;52.97
73016;BME280;61893;50.074;14.440;2022-07-23T01:16:48;98475.63;;;22.18;53.72
73016;BME280;61893;50.074;14.440;2022-07-23T01:19:19;98474.44;;;22.26;53.49
73016;BME280;61893;50.074;14.440;2022-07-23T01:21:50;98463.03;;;22.24;53.37
73016;BME280;61893;50.074;14.440;2022-07-23T01:24:20;98465.13;;;22.22;54.05
73016;BME280;61893;50.074;14.440;2022-07-23T01:26:49;98460.31;;;22.24;54.11
73016;BME280;61893;50.074;14.440;2022-07-23T01:29:18;98451.50;;;22.10;54.39
73016;BME280;61893;50.074;14.440;2022-07-23T01:32:21;98448.81;;;22.10;54.87
73016;BME280;61893;50.074;14.440;2022-07-23T01:34:53;98435.78;;;22.00;55.02
73016;BME280;61893;50.074;14.440;2022-07-23T01:37:35;98433.00;;;21.89;55.37
73016;BME280;61893;50.074;14.440;2022-07-23T01:40:05;98432.19;;;21.88;55.49
73016;BME280;61893;50.074;14.440;2022-07-23T01:42:34;98432.44;;;21.87;56.01
73016;BME280;61893;50.074;14.440;2022-07-23T01:45:03;98430.59;;;21.99;55.39
73016;BME280;61893;50.074;14.440;2022-07-23T01:47:30;98431.31;;;22.06;55.26
73016;BME280;61893;50.074;14.440;2022-07-23T01:50:09;98431.53;;;21.93;55.82
73016;BME280;61893;50.074;14.440;2022-07-23T01:52:39;98426.75;;;22.07;55.66
73016;BME280;61893;50.074;14.440;2022-07-23T01:55:42;98429.72;;;21.87;56.29
73016;BME280;61893;50.074;14.440;2022-07-23T01:58:09;98423.47;;;21.86;56.19
73016;BME280;61893;50.074;14.440;2022-07-23T02:00:43;98418.38;;;21.78;56.61
73016;BME280;61893;50.074;14.440;2022-07-23T02:03:09;98417.31;;;21.79;56.38
73016;BME280;61893;50.074;14.440;2022-07-23T02:05:36;98418.97;;;21.80;56.27
73016;BME280;61893;50.074;14.440;2022-07-23T02:08:02;98417.00;;;21.87;56.47
73016;BME280;61893;50.074;14.440;2022-07-23T02:10:29;98420.84;;;21.79;56.72
73016;BME280;61893;50.074;14.440;2022-07-23T02:13:10;98418.22;;;21.73;56.80
73016;BME280;61893;50.074;14.440;2022-07-23T02:18:13;98421.16;;;21.71;56.79
73016;BME280;61893;50.074;14.440;2022-07-23T02:21:00;98428.97;;;21.79;56.66
73016;BME280;61893;50.074;14.440;2022-07-23T02:23:26;98426.44;;;21.66;57.30
73016;BME280;61893;50.074;14.440;2022-07-23T02:25:56;98424.78;;;21.65;57.36
73016;BME280;61893;50.074;14.440;2022-07-23T02:28:22;98425.13;;;21.69;57.33
73016;BME280;61893;50.074;14.440;2022-07-23T02:30:48;98421.41;;;21.70;56.62
73016;BME280;61893;50.074;14.440;2022-07-23T02:33:14;98420.13;;;21.72;56.67
73016;BME280;61893;50.074;14.440;2022-07-23T02:35:40;98419.88;;;21.74;56.96
73016;BME280;61893;50.074;14.440;2022-07-23T02:38:11;98418.38;;;21.78;56.55
73016;BME280;61893;50.074;14.440;2022-07-23T02:40:38;98419.97;;;21.67;56.67
73016;BME280;61893;50.074;14.440;2022-07-23T02:43:04;98419.25;;;21.72;57.34
73016;BME280;61893;50.074;14.440;2022-07-23T02:45:30;98423.03;;;21.71;57.93
73016;BME280;61893;50.074;14.440;2022-07-23T02:47:57;98421.03;;;21.66;57.90
73016;BME280;61893;50.074;14.440;2022-07-23T02:50:23;98417.09;;;21.62;58.24
73016;BME280;61893;50.074;14.440;2022-07-23T02:52:50;98424.56;;;21.67;58.15
73016;BME280;61893;50.074;14.440;2022-07-23T02:55:16;98421.53;;;21.56;58.90
73016;BME280;61893;50.074;14.440;2022-07-23T02:57:42;98420.09;;;21.54;59.33
73016;BME280;61893;50.074;14.440;2022-07-23T03:00:09;98432.13;;;21.40;59.63
73016;BME280;61893;50.074;14.440;2022-07-23T03:02:35;98429.22;;;21.41;59.50
73016;BME280;61893;50.074;14.440;2022-07-23T03:05:01;98425.00;;;21.45;59.51
73016;BME280;61893;50.074;14.440;2022-07-23T03:07:32;98418.59;;;21.40;60.03
73016;BME280;61893;50.074;14.440;2022-07-23T03:10:10;98424.53;;;21.48;59.38
73016;BME280;61893;50.074;14.440;2022-07-23T03:12:51;98416.41;;;21.48;59.60
73016;BME280;61893;50.074;14.440;2022-07-23T03:15:17;98408.91;;;21.50;59.36
73016;BME280;61893;50.074;14.440;2022-07-23T03:17:46;98411.16;;;21.53;59.39
73016;BME280;61893;50.074;14.440;2022-07-23T03:20:12;98410.19;;;21.48;59.27
73016;BME280;61893;50.074;14.440;2022-07-23T03:22:54;98409.44;;;21.41;59.33
73016;BME280;61893;50.074;14.440;2022-07-23T03:25:27;98405.22;;;21.45;59.21
73016;BME280;61893;50.074;14.440;2022-07-23T03:28:09;98399.00;;;21.44;59.60
73016;BME280;61893;50.074;14.440;2022-07-23T03:30:36;98392.97;;;21.42;59.73
73016;BME280;61893;50.074;14.440;2022-07-23T03:33:02;98380.50;;;21.41;60.04
73016;BME280;61893;50.074;14.440;2022-07-23T03:35:28;98373.66;;;21.39;60.35
73016;BME280;61893;50.074;14.440;2022-07-23T03:37:54;98370.13;;;21.38;59.92
73016;BME280;61893;50.074;14.440;2022-07-23T03:40:23;98356.34;;;21.40;59.74
73016;BME280;61893;50.074;14.440;2022-07-23T03:42:54;98362.88;;;21.50;59.01
73016;BME280;61893;50.074;14.440;2022-07-23T03:45:27;98368.09;;;21.52;59.37
73016;BME280;61893;50.074;14.440;2022-07-23T03:47:56;98380.63;;;21.65;58.78
73016;BME280;61893;50.074;14.440;2022-07-23T03:50:27;98384.56;;;21.50;59.49
73016;BME280;61893;50.074;14.440;2022-07-23T03:52:56;98384.28;;;21.33;60.34
73016;BME280;61893;50.074;14.440;2022-07-23T03:55:22;98404.66;;;21.18;60.82
73016;BME280;61893;50.074;14.440;2022-07-23T03:58:02;98411.38;;;20.90;62.27
73016;BME280;61893;50.074;14.440;2022-07-23T04:00:29;98412.63;;;20.62;63.07
73016;BME280;61893;50.074;14.440;2022-07-23T04:02:57;98408.72;;;20.52;63.44
73016;BME280;61893;50.074;14.440;2022-07-23T04:05:36;98424.81;;;20.40;63.64
73016;BME280;61893;50.074;14.440;2022-07-23T04:08:02;98425.25;;;20.37;63.87
73016;BME280;61893;50.074;14.440;2022-07-23T04:10:28;98444.66;;;20.27;64.30
73016;BME280;61893;50.074;14.440;2022-07-23T04:12:54;98445.72;;;20.26;64.54
73016;BME280;61893;50.074;14.440;2022-07-23T04:15:22;98437.19;;;20.22;64.23
73016;BME280;61893;50.074;14.440;2022-07-23T04:17:48;98421.59;;;20.24;64.02
73016;BME280;61893;50.074;14.440;2022-07-23T04:20:14;98419.41;;;20.40;63.54
73016;BME280;61893;50.074;14.440;2022-07-23T04:23:00;98420.25;;;20.40;63.13
73016;BME280;61893;50.074;14.440;2022-07-23T04:25:30;98396.41;;;20.31;63.62
73016;BME280;61893;50.074;14.440;2022-07-23T04:27:59;98403.91;;;20.29;63.97
73016;BME280;61893;50.074;14.440;2022-07-23T04:30:26;98398.66;;;20.34;63.50
73016;BME280;61893;50.074;14.440;2022-07-23T04:32:52;98379.44;;;20.55;62.75
73016;BME280;61893;50.074;14.440;2022-07-23T04:35:19;98369.75;;;20.66;62.36
73016;BME280;61893;50.074;14.440;2022-07-23T04:37:45;98370.47;;;20.80;61.77
73016;BME280;61893;50.074;14.440;2022-07-23T04:40:12;98375.69;;;21.00;61.03
73016;BME280;61893;50.074;14.440;2022-07-23T04:42:38;98385.25;;;21.02;60.71
73016;BME280;61893;50.074;14.440;2022-07-23T04:45:07;98377.56;;;20.99;61.01
73016;BME280;61893;50.074;14.440;2022-07-23T04:47:34;98368.97;;;21.09;60.94
73016;BME280;61893;50.074;14.440;2022-07-23T04:50:01;98364.38;;;21.09;61.00
73016;BME280;61893;50.074;14.440;2022-07-23T04:52:26;98381.91;;;21.00;61.25
73016;BME280;61893;50.074;14.440;2022-07-23T04:54:53;98377.13;;;21.02;60.91
73016;BME280;61893;50.074;14.440;2022-07-23T04:57:19;98385.84;;;21.04;61.10
73016;BME280;61893;50.074;14.440;2022-07-23T04:59:45;98392.25;;;21.10;60.73
73016;BME280;61893;50.074;14.440;2022-07-23T05:02:14;98398.84;;;21.14;60.55
73016;BME280;61893;50.074;14.440;2022-07-23T05:04:40;98394.94;;;21.10;60.56
73016;BME280;61893;50.074;14.440;2022-07-23T05:07:06;98400.81;;;21.07;60.77
73016;BME280;61893;50.074;14.440;2022-07-23T05:09:34;98401.63;;;21.07;60.87
73016;BME280;61893;50.074;14.440;2022-07-23T05:12:12;98412.47;;;21.07;60.88
73016;BME280;61893;50.074;14.440;2022-07-23T05:14:47;98405.59;;;20.86;61.66
73016;BME280;61893;50.074;14.440;2022-07-23T05:17:16;98418.38;;;20.98;61.13
73016;BME280;61893;50.074;14.440;2022-07-23T05:19:42;98446.44;;;20.72;62.31
73016;BME280;61893;50.074;14.440;2022-07-23T05:22:10;98454.28;;;20.55;63.21
73016;BME280;61893;50.074;14.440;2022-07-23T05:24:39;98474.66;;;20.51;63.31
73016;BME280;61893;50.074;14.440;2022-07-23T05:27:19;98485.47;;;20.12;64.92
73016;BME280;61893;50.074;14.440;2022-07-23T05:29:45;98455.06;;;20.23;64.74
73016;BME280;61893;50.074;14.440;2022-07-23T05:32:17;98460.25;;;20.25;64.05
73016;BME280;61893;50.074;14.440;2022-07-23T05:35:06;98453.59;;;20.28;64.12
73016;BME280;61893;50.074;14.440;2022-07-23T05:37:34;98456.03;;;20.36;63.57
73016;BME280;61893;50.074;14.440;2022-07-23T05:40:04;98469.03;;;20.20;63.69
73016;BME280;61893;50.074;14.440;2022-07-23T05:42:32;98452.75;;;20.27;63.30
73016;BME280;61893;50.074;14.440;2022-07-23T05:44:58;98444.44;;;20.29;63.47
73016;BME280;61893;50.074;14.440;2022-07-23T05:47:24;98433.03;;;20.20;63.74
73016;BME280;61893;50.074;14.440;2022-07-23T05:49:51;98428.94;;;20.17;64.33
73016;BME280;61893;50.074;14.440;2022-07-23T05:52:39;98430.22;;;20.08;64.12
73016;BME280;61893;50.074;14.440;2022-07-23T05:55:20;98442.25;;;20.06;64.18
73016;BME280;61893;50.074;14.440;2022-07-23T05:57:49;98454.28;;;20.16;64.41
73016;BME280;61893;50.074;14.440;2022-07-23T06:00:15;98445.28;;;20.29;64.47
73016;BME280;61893;50.074;14.440;2022-07-23T06:02:57;98425.50;;;20.29;64.80
73016;BME280;61893;50.074;14.440;2022-07-23T06:06:06;98418.66;;;20.33;63.90
73016;BME280;61893;50.074;14.440;2022-07-23T06:08:55;98409.72;;;20.32;66.12
73016;BME280;61893;50.074;14.440;2022-07-23T06:11:21;98416.50;;;20.10;68.62
73016;BME280;61893;50.074;14.440;2022-07-23T06:14:00;98459.78;;;20.35;66.96
73016;BME280;61893;50.074;14.440;2022-07-23T06:16:42;98479.41;;;20.17;68.78
73016;BME280;61893;50.074;14.440;2022-07-23T06:19:08;98471.66;;;19.89;70.12
73016;BME280;61893;50.074;14.440;2022-07-23T06:21:36;98478.91;;;19.95;69.21
73016;BME280;61893;50.074;14.440;2022-07-23T06:24:05;98482.19;;;19.97;69.47
73016;BME280;61893;50.074;14.440;2022-07-23T06:26:32;98484.22;;;20.08;69.04
73016;BME280;61893;50.074;14.440;2022-07-23T06:28:58;98484.66;;;20.12;69.42
73016;BME280;61893;50.074;14.440;2022-07-23T06:31:24;98465.91;;;20.17;70.41
73016;BME280;61893;50.074;14.440;2022-07-23T06:33:50;98458.38;;;20.25;71.63
73016;BME280;61893;50.074;14.440;2022-07-23T06:36:17;98449.53;;;20.12;73.30
73016;BME280;61893;50.074;14.440;2022-07-23T06:38:43;98452.53;;;20.29;69.92
73016;BME280;61893;50.074;14.440;2022-07-23T06:41:12;98457.81;;;20.55;72.04
73016;BME280;61893;50.074;14.440;2022-07-23T06:43:43;98446.19;;;20.48;69.78
73016;BME280;61893;50.074;14.440;2022-07-23T06:46:10;98442.28;;;20.44;71.43
73016;BME280;61893;50.074;14.440;2022-07-23T06:48:35;98437.75;;;20.38;72.24
73016;BME280;61893;50.074;14.440;2022-07-23T06:51:02;98435.03;;;20.38;71.33
73016;BME280;61893;50.074;14.440;2022-07-23T06:53:29;98437.69;;;20.44;70.82
73016;BME280;61893;50.074;14.440;2022-07-23T06:55:55;98431.22;;;20.77;68.63
73016;BME280;61893;50.074;14.440;2022-07-23T06:58:21;98435.78;;;20.83;67.99
73016;BME280;61893;50.074;14.440;2022-07-23T07:00:50;98437.97;;;20.93;67.22
73016;BME280;61893;50.074;14.440;2022-07-23T07:03:18;98439.03;;;20.92;69.46
73016;BME280;61893;50.074;14.440;2022-07-23T07:05:44;98442.88;;;21.03;67.64
73016;BME280;61893;50.074;14.440;2022-07-23T07:08:14;98449.41;;;20.95;70.42
73016;BME280;61893;50.074;14.440;2022-07-23T07:11:02;98442.31;;;20.94;69.71
73016;BME280;61893;50.074;14.440;2022-07-23T07:13:33;98447.91;;;20.99;69.47
73016;BME280;61893;50.074;14.440;2022-07-23T07:16:07;98451.06;;;20.96;70.83
73016;BME280;61893;50.074;14.440;2022-07-23T07:18:35;98461.25;;;20.94;71.05
73016;BME280;61893;50.074;14.440;2022-07-23T07:21:06;98463.03;;;21.07;70.09
73016;BME280;61893;50.074;14.440;2022-07-23T07:23:35;98467.81;;;21.05;69.92
73016;BME280;61893;50.074;14.440;2022-07-23T07:26:02;98475.00;;;20.92;69.63
73016;BME280;61893;50.074;14.440;2022-07-23T07:28:42;98486.28;;;20.89;69.37
73016;BME280;61893;50.074;14.440;2022-07-23T07:31:09;98485.75;;;20.99;68.85
73016;BME280;61893;50.074;14.440;2022-07-23T07:33:47;98480.69;;;21.09;67.90
73016;BME280;61893;50.074;14.440;2022-07-23T07:36:19;98489.91;;;21.27;67.80
73016;BME280;61893;50.074;14.440;2022-07-23T07:38:45;98478.41;;;21.31;67.42
73016;BME280;61893;50.074;14.440;2022-07-23T07:41:23;98479.47;;;21.55;66.32
73016;BME280;61893;50.074;14.440;2022-07-23T07:43:53;98480.72;;;21.53;66.19
73016;BME280;61893;50.074;14.440;2022-07-23T07:50:36;98480.09;;;22.06;64.56
73016;BME280;61893;50.074;14.440;2022-07-23T07:53:40;98475.47;;;21.95;64.80
73016;BME280;61893;50.074;14.440;2022-07-23T07:56:31;98476.41;;;22.00;65.53
73016;BME280;61893;50.074;14.440;2022-07-23T07:59:27;98485.81;;;22.16;64.52
73016;BME280;61893;50.074;14.440;2022-07-23T08:03:01;98488.44;;;22.41;63.78
73016;BME280;61893;50.074;14.440;2022-07-23T08:05:45;98488.88;;;22.68;63.15
73016;BME280;61893;50.074;14.440;2022-07-23T08:08:22;98485.59;;;22.78;62.35
73016;BME280;61893;50.074;14.440;2022-07-23T08:11:19;98485.00;;;23.18;60.69
73016;BME280;61893;50.074;14.440;2022-07-23T08:14:00;98484.34;;;22.92;61.36
73016;BME280;61893;50.074;14.440;2022-07-23T08:16:27;98485.22;;;23.05;61.29
73016;BME280;61893;50.074;14.440;2022-07-23T08:18:53;98487.47;;;22.78;62.32
73016;BME280;61893;50.074;14.440;2022-07-23T08:21:33;98483.50;;;22.92;61.38
73016;BME280;61893;50.074;14.440;2022-07-23T08:24:19;98482.25;;;23.65;58.79
73016;BME280;61893;50.074;14.440;2022-07-23T08:26:51;98481.56;;;23.81;58.42
73016;BME280;61893;50.074;14.440;2022-07-23T08:29:26;98481.72;;;24.15;57.45
73016;BME280;61893;50.074;14.440;2022-07-23T08:31:58;98484.22;;;24.34;56.30
73016;BME280;61893;50.074;14.440;2022-07-23T08:34:35;98489.06;;;24.03;57.90
73016;BME280;61893;50.074;14.440;2022-07-23T08:37:52;98489.94;;;24.78;55.39
73016;BME280;61893;50.074;14.440;2022-07-23T08:41:20;98494.00;;;24.46;55.21
73016;BME280;61893;50.074;14.440;2022-07-23T08:44:10;98493.47;;;24.33;55.98
73016;BME280;61893;50.074;14.440;2022-07-23T08:47:14;98498.13;;;24.78;55.26
73016;BME280;61893;50.074;14.440;2022-07-23T08:49:52;98493.66;;;24.71;55.45
73016;BME280;61893;50.074;14.440;2022-07-23T08:52:42;98498.78;;;24.85;54.65
73016;BME280;61893;50.074;14.440;2022-07-23T08:55:27;98494.00;;;24.92;54.31
73016;BME280;61893;50.074;14.440;2022-07-23T08:58:11;98490.78;;;24.95;55.03
73016;BME280;61893;50.074;14.440;2022-07-23T09:00:55;98488.97;;;25.01;54.04
73016;BME280;61893;50.074;14.440;2022-07-23T09:04:02;98486.88;;;25.20;54.15
73016;BME280;61893;50.074;14.440;2022-07-23T09:06:50;98486.69;;;25.43;52.68
73016;BME280;61893;50.074;14.440;2022-07-23T09:09:37;98489.59;;;25.20;51.74
73016;BME280;61893;50.074;14.440;2022-07-23T09:12:20;98485.13;;;25.13;51.54
73016;BME280;61893;50.074;14.440;2022-07-23T09:14:57;98486.53;;;25.33;50.14
73016;BME280;61893;50.074;14.440;2022-07-23T09:21:17;98474.59;;;26.39;47.79
73016;BME280;61893;50.074;14.440;2022-07-23T09:29:25;98477.03;;;26.94;44.87
73016;BME280;61893;50.074;14.440;2022-07-23T09:32:24;98480.22;;;26.32;46.17
73016;BME280;61893;50.074;14.440;2022-07-23T09:34:53;98478.16;;;26.66;45.18
73016;BME280;61893;50.074;14.440;2022-07-23T09:37:19;98474.25;;;26.57;45.75
73016;BME280;61893;50.074;14.440;2022-07-23T09:39:48;98474.72;;;26.27;44.72
73016;BME280;61893;50.074;14.440;2022-07-23T09:42:32;98474.59;;;26.17;45.71
73016;BME280;61893;50.074;14.440;2022-07-23T09:45:10;98477.91;;;26.19;45.58
73016;BME280;61893;50.074;14.440;2022-07-23T09:48:10;98479.16;;;26.11;45.38
73016;BME280;61893;50.074;14.440;2022-07-23T09:50:40;98477.53;;;26.10;44.50
73016;BME280;61893;50.074;14.440;2022-07-23T09:53:41;98481.97;;;25.94;44.97
73016;BME280;61893;50.074;14.440;2022-07-23T09:56:08;98486.09;;;25.97;44.91
73016;BME280;61893;50.074;14.440;2022-07-23T09:59:16;98488.00;;;25.96;44.63
73016;BME280;61893;50.074;14.440;2022-07-23T10:01:51;98484.31;;;25.86;45.04
73016;BME280;61893;50.074;14.440;2022-07-23T10:04:18;98492.16;;;26.04;45.09
73016;BME280;61893;50.074;14.440;2022-07-23T10:07:13;98479.19;;;26.60;43.98
73016;BME280;61893;50.074;14.440;2022-07-23T10:09:58;98490.09;;;26.60;43.56
73016;BME280;61893;50.074;14.440;2022-07-23T10:12:25;98484.75;;;27.03;43.62
73016;BME280;61893;50.074;14.440;2022-07-23T10:15:05;98478.19;;;27.04;42.78
73016;BME280;61893;50.074;14.440;2022-07-23T10:17:37;98481.09;;;26.92;42.76
73016;BME280;61893;50.074;14.440;2022-07-23T10:20:32;98467.47;;;26.92;43.07
73016;BME280;61893;50.074;14.440;2022-07-23T10:23:16;98467.66;;;27.55;41.60
73016;BME280;61893;50.074;14.440;2022-07-23T10:31:26;98463.13;;;27.71;41.76
73016;BME280;61893;50.074;14.440;2022-07-23T10:39:32;98463.66;;;28.30;40.72
73016;BME280;61893;50.074;14.440;2022-07-23T10:42:20;98453.50;;;28.26;41.14
73016;BME280;61893;50.074;14.440;2022-07-23T10:44:49;98459.25;;;28.29;40.42
73016;BME280;61893;50.074;14.440;2022-07-23T10:47:32;98460.97;;;28.46;40.20
73016;BME280;61893;50.074;14.440;2022-07-23T10:50:30;98451.44;;;28.79;39.25
73016;BME280;61893;50.074;14.440;2022-07-23T10:55:41;98453.63;;;29.18;37.83
73016;BME280;61893;50.074;14.440;2022-07-23T10:58:09;98457.44;;;28.81;37.91
73016;BME280;61893;50.074;14.440;2022-07-23T11:00:43;98446.47;;;28.45;38.15
73016;BME280;61893;50.074;14.440;2022-07-23T11:03:35;98434.75;;;28.70;38.15
73016;BME280;61893;50.074;14.440;2022-07-23T11:06:08;98442.06;;;28.44;38.50
73016;BME280;61893;50.074;14.440;2022-07-23T11:08:39;98433.63;;;28.92;37.47
73016;BME280;61893;50.074;14.440;2022-07-23T11:13:45;98439.88;;;29.49;36.77
73016;BME280;61893;50.074;14.440;2022-07-23T11:16:49;98418.56;;;28.84;36.97
73016;BME280;61893;50.074;14.440;2022-07-23T11:20:14;98419.13;;;29.22;36.29
73016;BME280;61893;50.074;14.440;2022-07-23T11:27:51;98410.34;;;28.89;37.28
73016;BME280;61893;50.074;14.440;2022-07-23T11:35:44;98406.50;;;29.26;37.12
73016;BME280;61893;50.074;14.440;2022-07-23T11:38:26;98405.63;;;29.41;36.75
73016;BME280;61893;50.074;14.440;2022-07-23T11:40:56;98414.47;;;29.07;37.60
73016;BME280;61893;50.074;14.440;2022-07-23T11:43:25;98441.31;;;28.95;37.31
73016;BME280;61893;50.074;14.440;2022-07-23T11:46:00;98468.16;;;26.77;40.72
73016;BME280;61893;50.074;14.440;2022-07-23T11:48:34;98456.06;;;24.68;42.50
73016;BME280;61893;50.074;14.440;2022-07-23T11:51:05;98437.69;;;24.76;39.23
73016;BME280;61893;50.074;14.440;2022-07-23T11:53:33;98434.00;;;25.15;38.70
73016;BME280;61893;50.074;14.440;2022-07-23T11:56:22;98459.13;;;24.89;37.91
73016;BME280;61893;50.074;14.440;2022-07-23T11:58:59;98461.59;;;24.90;38.97
73016;BME280;61893;50.074;14.440;2022-07-23T12:01:28;98464.47;;;24.38;40.69
73016;BME280;61893;50.074;14.440;2022-07-23T12:03:55;98455.97;;;24.35;41.35
73016;BME280;61893;50.074;14.440;2022-07-23T12:06:24;98494.91;;;24.23;40.69
73016;BME280;61893;50.074;14.440;2022-07-23T12:08:56;98520.28;;;23.30;43.94
73016;BME280;61893;50.074;14.440;2022-07-23T12:11:25;98504.47;;;23.15;45.74
73016;BME280;61893;50.074;14.440;2022-07-23T12:14:09;98482.44;;;22.81;49.34
73016;BME280;61893;50.074;14.440;2022-07-23T12:16:45;98471.13;;;22.54;52.93
73016;BME280;61893;50.074;14.440;2022-07-23T12:19:11;98458.00;;;22.69;53.91
73016;BME280;61893;50.074;14.440;2022-07-23T12:21:40;98472.88;;;22.79;53.90
73016;BME280;61893;50.074;14.440;2022-07-23T12:24:13;98466.09;;;23.23;53.58
73016;BME280;61893;50.074;14.440;2022-07-23T12:27:10;98483.41;;;23.69;52.49
73016;BME280;61893;50.074;14.440;2022-07-23T12:30:31;98480.06;;;24.43;50.66
73016;BME280;61893;50.074;14.440;2022-07-23T12:32:56;98481.63;;;23.98;51.83
73016;BME280;61893;50.074;14.440;2022-07-23T12:35:40;98482.59;;;23.92;52.54
73016;BME280;61893;50.074;14.440;2022-07-23T12:38:12;98472.94;;;23.73;53.54
73016;BME280;61893;50.074;14.440;2022-07-23T12:40:58;98471.63;;;23.52;54.46
73016;BME280;61893;50.074;14.440;2022-07-23T12:43:41;98475.88;;;23.59;54.43
73016;BME280;61893;50.074;14.440;2022-07-23T12:46:11;98479.06;;;23.68;54.38
73016;BME280;61893;50.074;14.440;2022-07-23T12:48:52;98471.66;;;23.75;54.12
73016;BME280;61893;50.074;14.440;2022-07-23T12:51:28;98475.72;;;24.01;53.48
73016;BME280;61893;50.074;14.440;2022-07-23T12:54:04;98504.22;;;24.27;53.15
73016;BME280;61893;50.074;14.440;2022-07-23T12:56:39;98522.72;;;24.14;54.19
73016;BME280;61893;50.074;14.440;2022-07-23T12:59:12;98529.25;;;24.01;55.95
73016;BME280;61893;50.074;14.440;2022-07-23T13:01:57;98534.78;;;24.06;55.18
73016;BME280;61893;50.074;14.440;2022-07-23T13:04:28;98529.75;;;24.38;53.99
73016;BME280;61893;50.074;14.440;2022-07-23T13:06:59;98526.19;;;24.49;52.14
73016;BME280;61893;50.074;14.440;2022-07-23T13:09:30;98527.13;;;24.72;50.44
73016;BME280;61893;50.074;14.440;2022-07-23T13:11:58;98517.59;;;25.03;49.58
73016;BME280;61893;50.074;14.440;2022-07-23T13:14:36;98526.75;;;24.97;49.90
73016;BME280;61893;50.074;14.440;2022-07-23T13:17:07;98515.13;;;25.52;48.31
73016;BME280;61893;50.074;14.440;2022-07-23T13:19:40;98502.13;;;25.93;46.35
73016;BME280;61893;50.074;14.440;2022-07-23T13:22:26;98507.28;;;26.61;44.14
73016;BME280;61893;50.074;14.440;2022-07-23T13:24:53;98492.50;;;27.48;42.24
73016;BME280;61893;50.074;14.440;2022-07-23T13:27:25;98491.03;;;27.35;41.45
73016;BME280;61893;50.074;14.440;2022-07-23T13:30:00;98483.34;;;27.75;41.01
73016;BME280;61893;50.074;14.440;2022-07-23T13:32:45;98480.75;;;27.95;40.22
73016;BME280;61893;50.074;14.440;2022-07-23T13:38:28;98467.44;;;27.19;43.79
73016;BME280;61893;50.074;14.440;2022-07-23T13:40:55;98480.88;;;27.26;43.68
73016;BME280;61893;50.074;14.440;2022-07-23T13:43:24;98475.03;;;28.07;42.66
73016;BME280;61893;50.074;14.440;2022-07-23T13:45:52;98472.69;;;26.93;44.88
73016;BME280;61893;50.074;14.440;2022-07-23T13:48:25;98487.94;;;26.62;46.21
73016;BME280;61893;50.074;14.440;2022-07-23T13:50:52;98495.41;;;26.72;45.86
73016;BME280;61893;50.074;14.440;2022-07-23T13:53:21;98491.66;;;27.43;44.63
73016;BME280;61893;50.074;14.440;2022-07-23T13:55:56;98501.09;;;27.67;43.16
73016;BME280;61893;50.074;14.440;2022-07-23T13:58:23;98494.03;;;27.02;45.53
73016;BME280;61893;50.074;14.440;2022-07-23T14:00:52;98504.63;;;26.98;44.86
73016;BME280;61893;50.074;14.440;2022-07-23T14:03:33;98504.69;;;27.03;45.75
73016;BME280;61893;50.074;14.440;2022-07-23T14:06:01;98507.50;;;26.81;45.99
73016;BME280;61893;50.074;14.440;2022-07-23T14:08:35;98508.22;;;26.99;44.76
73016;BME280;61893;50.074;14.440;2022-07-23T14:11:18;98505.84;;;26.80;44.06
73016;BME280;61893;50.074;14.440;2022-07-23T14:14:16;98507.94;;;27.27;43.97